Airport Name : Sliac

Other Name : Sliac

ICAO : LZSL

IATA : SLD

FAA :

Latitude : 48.637839

Longitude : 19.134108

Country : Slovakia

Local Date and Time : 25 Jun 2024 08:34

 

TAF (Terminal Aerodrome Forecast)

TAF LZSL 250430Z 2506/2518 VRB03KT CAVOK BECMG 2508/2510 14006KT 9999 FEW050

 

METAR (METeorological Aerodrome Report)